Time;durP1;ratioP1;P1;durP2;ratioP2;P2;SDS_P1;SDS_P2;PMS_P1;PMS_P2;Temp;Humidity;BMP_temperature;BMP_pressure;BME280_temperature;BME280_humidity;BME280_pressure;Samples;Min_cycle;Max_cycle;Signal;HPM_P1;HPM_P2
2022/04/13 00:00:42;;;;;;;21.08;15.23;;;;;;;11.11;88.76;101088.19;5036943;28;20037;-77
2022/04/13 00:03:07;;;;;;;22.17;15.60;;;;;;;11.07;88.88;101086.56;5032000;28;20025;-77
2022/04/13 00:05:33;;;;;;;23.73;15.77;;;;;;;11.03;89.26;101090.28;5034305;28;20025;-77
2022/04/13 00:08:00;;;;;;;20.92;15.73;;;;;;;10.97;89.18;101091.41;5035367;28;20056;-76
2022/04/13 00:10:26;;;;;;;20.08;16.02;;;;;;;10.92;89.70;101090.75;5040532;28;20123;-76
2022/04/13 00:12:51;;;;;;;24.77;16.83;;;;;;;10.87;89.99;101085.66;5032645;28;20033;-77
2022/04/13 00:15:17;;;;;;;25.67;17.00;;;;;;;10.83;89.84;101094.63;5034489;28;20037;-77
2022/04/13 00:17:43;;;;;;;25.90;16.73;;;;;;;10.80;90.56;101097.44;5034172;28;20491;-78
2022/04/13 00:20:09;;;;;;;26.90;17.25;;;;;;;10.76;90.48;101094.06;5034133;28;20040;-77
2022/04/13 00:22:35;;;;;;;26.67;17.67;;;;;;;10.72;90.78;101093.31;5035454;28;20104;-77
2022/04/13 00:25:00;;;;;;;28.00;17.67;;;;;;;10.67;91.01;101087.34;5038240;28;20055;-77
2022/04/13 00:27:26;;;;;;;31.25;18.48;;;;;;;10.63;90.73;101085.78;5039231;28;20573;-77
2022/04/13 00:29:51;;;;;;;24.60;17.45;;;;;;;10.58;91.43;101087.75;5039015;28;20036;-76
2022/04/13 00:32:17;;;;;;;27.48;18.00;;;;;;;10.55;91.40;101101.09;5038495;28;20429;-76
2022/04/13 00:34:42;;;;;;;30.58;18.90;;;;;;;10.49;91.54;101088.09;5039335;28;20029;-77
2022/04/13 00:37:08;;;;;;;26.83;18.25;;;;;;;10.45;91.63;101090.91;5036507;28;20051;-78
2022/04/13 00:39:33;;;;;;;29.73;18.27;;;;;;;10.41;91.58;101088.41;5038017;28;20605;-78
2022/04/13 00:42:02;;;;;;;31.27;18.70;;;;;;;10.37;91.69;101089.44;5038261;28;20029;-78
2022/04/13 00:44:28;;;;;;;30.33;18.77;;;;;;;10.33;91.82;101089.59;5037892;28;20035;-77
2022/04/13 00:46:55;;;;;;;29.25;18.75;;;;;;;10.31;91.90;101095.84;5038700;28;20029;-78
2022/04/13 00:49:21;;;;;;;31.85;18.58;;;;;;;10.27;91.86;101092.47;5039103;28;20204;-77
2022/04/13 00:51:46;;;;;;;30.88;18.98;;;;;;;10.23;91.66;101096.16;5054915;28;20036;-77
2022/04/13 00:54:12;;;;;;;32.05;19.95;;;;;;;10.22;91.82;101101.50;5037714;28;20040;-77
2022/04/13 00:56:41;;;;;;;29.05;18.90;;;;;;;10.21;92.10;101094.50;5038407;28;20481;-78
2022/04/13 00:59:10;;;;;;;30.20;19.05;;;;;;;10.18;92.42;101088.41;5050079;28;20487;-78
2022/04/13 01:01:37;;;;;;;35.58;19.08;;;;;;;10.19;93.02;101091.94;5057737;28;20037;-77
2022/04/13 01:04:04;;;;;;;32.53;19.83;;;;;;;10.19;92.79;101100.72;5018785;28;20032;-77
2022/04/13 01:06:29;;;;;;;32.45;20.65;;;;;;;10.20;93.51;101112.16;5039827;28;20412;-77
2022/04/13 01:08:55;;;;;;;35.03;20.90;;;;;;;10.23;93.33;101111.19;5039787;28;20067;-79
2022/04/13 01:11:21;;;;;;;37.28;21.17;;;;;;;10.23;93.56;101121.78;5058971;28;20040;-79
2022/04/13 01:13:47;;;;;;;32.13;21.42;;;;;;;10.24;93.92;101118.19;5058200;28;20555;-79
2022/04/13 01:16:13;;;;;;;34.35;22.50;;;;;;;10.25;93.99;101119.91;5059066;28;20047;-78
2022/04/13 01:18:38;;;;;;;35.10;21.58;;;;;;;10.26;94.20;101124.28;5059780;28;20033;-78
2022/04/13 01:21:05;;;;;;;32.28;21.58;;;;;;;10.28;94.42;101135.66;5058448;28;20087;-78
2022/04/13 01:23:31;;;;;;;34.20;22.13;;;;;;;10.30;94.42;101147.91;5058424;28;20318;-78
2022/04/13 01:25:56;;;;;;;35.15;21.25;;;;;;;10.37;95.11;101155.59;5057168;28;20638;-78
2022/04/13 01:28:22;;;;;;;33.33;21.48;;;;;;;10.42;94.79;101162.47;5040238;28;20086;-78
2022/04/13 01:30:48;;;;;;;34.45;22.52;;;;;;;10.48;94.55;101163.16;5040352;28;20068;-78
2022/04/13 01:33:15;;;;;;;34.88;22.20;;;;;;;10.51;94.72;101168.34;5039076;28;20123;-78
2022/04/13 01:35:40;;;;;;;31.27;21.83;;;;;;;10.51;94.88;101166.53;5023088;28;20066;-77
2022/04/13 01:38:06;;;;;;;33.30;21.98;;;;;;;10.54;94.62;101173.50;5056161;28;20140;-78
2022/04/13 01:40:32;;;;;;;36.15;21.88;;;;;;;10.55;94.85;101167.28;5059281;28;20682;-78
2022/04/13 01:42:58;;;;;;;33.83;21.95;;;;;;;10.57;94.64;101170.75;5057015;28;20812;-78
2022/04/13 01:45:23;;;;;;;38.25;22.63;;;;;;;10.58;94.99;101169.81;5040606;28;20047;-77
2022/04/13 01:47:49;;;;;;;40.92;23.88;;;;;;;10.61;95.15;101172.31;5057992;28;20134;-78
2022/04/13 01:50:16;;;;;;;37.15;23.13;;;;;;;10.64;95.24;101176.63;5010908;28;20035;-78
2022/04/13 01:52:45;;;;;;;41.05;24.13;;;;;;;10.65;95.05;101178.34;5022790;28;20032;-77
2022/04/13 01:55:11;;;;;;;41.75;24.27;;;;;;;10.64;94.81;101185.47;5058278;28;20037;-78
2022/04/13 01:57:37;;;;;;;37.42;23.48;;;;;;;10.63;95.15;101182.88;5056140;28;20063;-78
2022/04/13 02:00:05;;;;;;;36.10;24.05;;;;;;;10.60;94.95;101186.50;5039987;28;20036;-78
2022/04/13 02:02:31;;;;;;;37.47;23.85;;;;;;;10.58;95.25;101185.69;5057919;28;20037;-78
2022/04/13 02:04:56;;;;;;;36.25;22.92;;;;;;;10.55;95.26;101184.03;5039655;28;20667;-78
2022/04/13 02:07:22;;;;;;;33.50;23.33;;;;;;;10.54;95.40;101189.38;5063155;28;20044;-77
2022/04/13 02:09:47;;;;;;;33.35;21.92;;;;;;;10.54;95.58;101186.75;5065060;28;20048;-78
2022/04/13 02:12:12;;;;;;;38.22;23.30;;;;;;;10.51;95.51;101184.22;5067631;28;20035;-77
2022/04/13 02:14:38;;;;;;;36.42;22.08;;;;;;;10.50;95.40;101188.66;5051097;28;20061;-78
2022/04/13 02:17:04;;;;;;;37.17;23.02;;;;;;;10.46;95.75;101184.38;5051966;28;20034;-78
2022/04/13 02:19:29;;;;;;;32.58;21.63;;;;;;;10.41;95.91;101186.34;5047301;28;20580;-77
2022/04/13 02:21:55;;;;;;;33.33;21.65;;;;;;;10.36;95.68;101189.16;5049086;28;20102;-78
2022/04/13 02:24:20;;;;;;;31.80;22.08;;;;;;;10.31;95.65;101185.84;5063747;28;20033;-78
2022/04/13 02:26:46;;;;;;;36.25;22.55;;;;;;;10.26;95.64;101186.03;5031380;28;20036;-77
2022/04/13 02:29:11;;;;;;;35.95;22.30;;;;;;;10.21;95.62;101182.69;5057109;28;20050;-77
2022/04/13 02:31:37;;;;;;;35.28;23.33;;;;;;;10.17;96.15;101181.94;5037686;28;20045;-77
2022/04/13 02:34:04;;;;;;;37.85;23.05;;;;;;;10.15;96.16;101178.47;5057297;28;20583;-77
2022/04/13 02:36:31;;;;;;;36.53;23.45;;;;;;;10.14;96.93;101184.69;5056542;28;20391;-77
2022/04/13 02:38:56;;;;;;;38.55;23.45;;;;;;;10.12;96.89;101183.88;5057146;28;20233;-78
2022/04/13 02:41:22;;;;;;;36.33;22.08;;;;;;;10.11;97.20;101183.94;5056656;28;20110;-78
2022/04/13 02:43:48;;;;;;;34.55;21.27;;;;;;;10.07;96.93;101175.25;5056735;28;20232;-77
2022/04/13 02:46:13;;;;;;;31.67;21.02;;;;;;;10.05;96.90;101177.97;5037836;28;20073;-77
2022/04/13 02:48:39;;;;;;;36.13;21.92;;;;;;;10.02;97.05;101180.72;5056742;28;20098;-77
2022/04/13 02:51:04;;;;;;;40.78;22.83;;;;;;;9.99;97.30;101183.50;5055972;28;20052;-76
2022/04/13 02:53:31;;;;;;;35.60;22.23;;;;;;;9.97;96.95;101187.13;5038215;28;20032;-77
2022/04/13 02:55:58;;;;;;;29.65;20.35;;;;;;;9.94;97.59;101179.28;5039502;28;20120;-76
2022/04/13 02:58:24;;;;;;;32.38;20.65;;;;;;;9.90;97.32;101179.41;5036099;28;20115;-77
2022/04/13 03:00:49;;;;;;;32.42;20.85;;;;;;;9.85;97.09;101173.44;5056246;28;20490;-77
2022/04/13 03:03:16;;;;;;;37.22;22.70;;;;;;;9.82;97.16;101180.63;5055760;28;20031;-76
2022/04/13 03:05:43;;;;;;;34.33;21.25;;;;;;;9.78;97.46;101185.16;5037331;28;20035;-76
2022/04/13 03:08:08;;;;;;;34.60;22.05;;;;;;;9.72;97.63;101186.25;5024647;28;20082;-77
2022/04/13 03:10:34;;;;;;;35.25;23.90;;;;;;;9.69;97.84;101185.50;5055463;28;20480;-77
2022/04/13 03:13:00;;;;;;;34.40;23.38;;;;;;;9.65;98.21;101182.94;5036325;28;20028;-77
2022/04/13 03:15:26;;;;;;;35.47;23.52;;;;;;;9.64;98.11;101188.28;5056551;28;20777;-78
2022/04/13 03:17:53;;;;;;;35.75;22.55;;;;;;;9.61;98.77;101191.94;5053274;28;20551;-77
2022/04/13 03:20:18;;;;;;;38.55;23.38;;;;;;;9.59;98.96;101193.75;5054699;28;20043;-77
2022/04/13 03:22:45;;;;;;;37.58;24.45;;;;;;;9.58;98.94;101199.09;5026584;28;20119;-76
2022/04/13 03:25:11;;;;;;;38.60;25.33;;;;;;;9.58;99.49;101192.03;5052404;28;20031;-77
2022/04/13 03:27:37;;;;;;;36.92;24.05;;;;;;;9.56;99.65;101199.16;5055642;28;20028;-77
2022/04/13 03:30:04;;;;;;;37.30;24.00;;;;;;;9.54;99.80;101206.28;5038159;28;20040;-77
2022/04/13 03:32:38;;;;;;;38.97;23.52;;;;;;;9.53;100.00;101212.47;5052390;28;21075;-77
2022/04/13 03:35:10;;;;;;;40.40;23.83;;;;;;;9.51;99.67;101214.31;5055424;28;20035;-77
2022/04/13 03:37:36;;;;;;;35.08;23.27;;;;;;;9.49;100.00;101213.50;5037535;28;20029;-77
2022/04/13 03:40:03;;;;;;;38.67;24.27;;;;;;;9.49;100.00;101216.16;5055026;28;20029;-77
2022/04/13 03:42:36;;;;;;;35.78;22.35;;;;;;;9.48;100.00;101222.34;5055569;28;20039;-77
2022/04/13 03:45:04;;;;;;;37.22;23.15;;;;;;;9.47;100.00;101215.31;5026178;28;21642;-77
2022/04/13 03:47:30;;;;;;;42.83;25.10;;;;;;;9.47;100.00;101210.91;5053639;28;20029;-77
2022/04/13 03:49:55;;;;;;;33.53;23.67;;;;;;;9.49;100.00;101218.78;5035946;28;20407;-78
2022/04/13 03:52:22;;;;;;;40.42;24.10;;;;;;;9.51;100.00;101219.59;5055018;28;20576;-77
2022/04/13 03:54:47;;;;;;;43.78;25.67;;;;;;;9.53;100.00;101222.19;5054763;28;20040;-77
2022/04/13 03:57:13;;;;;;;39.13;24.67;;;;;;;9.53;100.00;101223.03;5036981;28;20106;-77
2022/04/13 03:59:38;;;;;;;42.05;26.52;;;;;;;9.56;100.00;101222.94;5033883;28;20045;-78
2022/04/13 04:02:04;;;;;;;36.63;23.52;;;;;;;9.58;100.00;101231.66;5038489;28;20029;-78
2022/04/13 04:04:29;;;;;;;40.42;25.42;;;;;;;9.58;100.00;101236.97;5041939;28;20033;-78
2022/04/13 04:06:55;;;;;;;38.50;26.42;;;;;;;9.59;100.00;101236.03;5040959;28;20036;-78
2022/04/13 04:09:20;;;;;;;35.20;24.33;;;;;;;9.60;100.00;101235.13;5026390;28;20079;-77
2022/04/13 04:11:46;;;;;;;38.20;26.13;;;;;;;9.60;100.00;101237.75;5037022;28;20033;-77
2022/04/13 04:14:11;;;;;;;43.20;27.48;;;;;;;9.60;100.00;101234.28;5007201;28;20044;-77
2022/04/13 04:16:37;;;;;;;43.72;27.73;;;;;;;9.62;100.00;101233.31;5038723;28;20411;-77
2022/04/13 04:19:02;;;;;;;43.17;26.23;;;;;;;9.63;100.00;101236.78;5039312;28;20443;-77
2022/04/13 04:21:28;;;;;;;42.00;26.33;;;;;;;9.62;100.00;101238.59;5037950;28;20469;-77
2022/04/13 04:23:53;;;;;;;38.38;24.80;;;;;;;9.63;100.00;101240.31;5037464;28;20571;-77
2022/04/13 04:26:19;;;;;;;43.60;27.20;;;;;;;9.63;100.00;101242.94;5039010;28;20055;-77
2022/04/13 04:28:44;;;;;;;39.38;26.33;;;;;;;9.63;100.00;101245.59;5037055;28;20033;-77
2022/04/13 04:31:10;;;;;;;47.63;28.13;;;;;;;9.64;100.00;101252.59;5039500;28;20033;-77
2022/04/13 04:33:35;;;;;;;49.97;29.40;;;;;;;9.67;100.00;101245.47;5037542;28;20476;-77
2022/04/13 04:36:01;;;;;;;40.58;27.15;;;;;;;9.65;100.00;101249.03;5038807;28;20503;-77
2022/04/13 04:38:35;;;;;;;41.00;25.55;;;;;;;9.64;100.00;101263.19;5053074;28;20033;-76
2022/04/13 04:41:01;;;;;;;40.40;27.10;;;;;;;9.62;100.00;101270.31;5039826;28;20494;-76
2022/04/13 04:43:27;;;;;;;39.50;26.33;;;;;;;9.63;100.00;101269.38;5038900;28;20029;-77
2022/04/13 04:45:52;;;;;;;51.63;29.58;;;;;;;9.62;100.00;101270.31;5037564;28;20029;-77
2022/04/13 04:48:18;;;;;;;40.67;27.23;;;;;;;9.64;100.00;101280.81;5038796;28;20032;-77
2022/04/13 04:50:43;;;;;;;46.45;27.67;;;;;;;9.66;100.00;101289.56;5038078;28;20474;-77
2022/04/13 04:53:09;;;;;;;46.58;28.95;;;;;;;9.70;100.00;101287.69;5039130;28;20044;-78
2022/04/13 04:55:34;;;;;;;49.13;28.77;;;;;;;9.70;100.00;101295.63;5035401;28;20662;-77
2022/04/13 04:58:02;;;;;;;45.53;28.73;;;;;;;9.74;100.00;101290.16;5039814;28;20209;-77
2022/04/13 05:00:28;;;;;;;43.53;28.70;;;;;;;9.78;100.00;101302.38;5050450;28;20159;-77
2022/04/13 05:02:53;;;;;;;41.42;27.90;;;;;;;9.82;100.00;101300.50;5058764;28;20133;-77
2022/04/13 05:05:20;;;;;;;47.90;27.98;;;;;;;9.84;100.00;101293.34;5058079;28;20063;-77
2022/04/13 05:07:45;;;;;;;44.65;28.95;;;;;;;9.86;100.00;101295.94;5059138;28;20579;-76
2022/04/13 05:10:11;;;;;;;43.95;28.25;;;;;;;9.87;100.00;101297.69;5053214;28;20028;-77
2022/04/13 05:12:49;;;;;;;47.42;28.75;;;;;;;9.88;100.00;101297.63;5005375;28;20035;-77
2022/04/13 05:15:14;;;;;;;44.22;28.10;;;;;;;9.89;100.00;101303.75;5039504;28;20063;-77
2022/04/13 05:17:40;;;;;;;45.75;27.88;;;;;;;9.90;100.00;101306.38;5028993;28;20171;-76
2022/04/13 05:20:07;;;;;;;46.05;29.02;;;;;;;9.91;100.00;101301.91;5013086;28;20116;-76
2022/04/13 05:22:33;;;;;;;41.60;28.25;;;;;;;9.94;100.00;101307.13;5057511;28;20028;-77
2022/04/13 05:25:07;;;;;;;42.03;28.13;;;;;;;9.96;100.00;101307.91;5042560;28;20054;-76
2022/04/13 05:27:32;;;;;;;37.50;26.77;;;;;;;9.99;100.00;101314.88;5060046;28;20037;-76
2022/04/13 05:29:58;;;;;;;42.83;27.00;;;;;;;10.01;100.00;101318.34;5039616;28;20063;-76
2022/04/13 05:32:24;;;;;;;40.50;26.88;;;;;;;10.02;100.00;101314.78;5039803;28;20741;-77
2022/04/13 05:34:49;;;;;;;41.42;27.55;;;;;;;10.02;100.00;101326.22;5039509;28;20346;-77
2022/04/13 05:37:15;;;;;;;45.67;28.92;;;;;;;10.05;100.00;101331.41;5041610;28;20036;-76
2022/04/13 05:39:41;;;;;;;45.80;28.73;;;;;;;10.09;100.00;101337.47;5029272;28;20032;-76
2022/04/13 05:42:07;;;;;;;40.13;26.98;;;;;;;10.12;100.00;101339.09;5028871;28;20459;-77
2022/04/13 05:44:32;;;;;;;42.78;27.13;;;;;;;10.13;100.00;101339.06;5040367;28;20068;-77
2022/04/13 05:46:57;;;;;;;40.67;26.75;;;;;;;10.16;100.00;101348.69;5039455;28;20021;-77
2022/04/13 05:49:23;;;;;;;42.33;27.45;;;;;;;10.18;100.00;101346.81;5039169;28;20043;-76
2022/04/13 05:51:48;;;;;;;45.63;27.10;;;;;;;10.20;100.00;101352.94;5057768;28;20034;-77
2022/04/13 05:54:14;;;;;;;39.70;26.20;;;;;;;10.23;100.00;101354.63;5011295;28;20037;-77
2022/04/13 05:56:39;;;;;;;49.80;26.88;;;;;;;10.25;100.00;101358.91;5058971;28;20039;-74
2022/04/13 05:59:05;;;;;;;43.65;26.85;;;;;;;10.28;100.00;101365.88;5061933;28;20028;-77
2022/04/13 06:01:30;;;;;;;43.30;27.52;;;;;;;10.30;100.00;101370.22;5039072;28;20059;-76
2022/04/13 06:03:56;;;;;;;40.72;27.48;;;;;;;10.32;100.00;101373.69;5056395;28;20028;-75
2022/04/13 06:06:25;;;;;;;43.60;27.88;;;;;;;10.35;100.00;101375.34;5058305;28;20044;-77
2022/04/13 06:08:51;;;;;;;47.00;26.60;;;;;;;10.36;100.00;101377.09;5042341;28;20032;-77
2022/04/13 06:11:16;;;;;;;45.15;27.33;;;;;;;10.37;100.00;101386.75;5058759;28;20037;-77
2022/04/13 06:13:42;;;;;;;39.55;26.88;;;;;;;10.38;100.00;101385.84;5057417;28;20131;-77
2022/04/13 06:16:08;;;;;;;41.08;26.67;;;;;;;10.42;100.00;101392.75;5056929;28;20052;-77
2022/04/13 06:18:33;;;;;;;45.25;27.10;;;;;;;10.45;100.00;101395.31;5038986;28;20062;-77
2022/04/13 06:20:59;;;;;;;40.85;27.13;;;;;;;10.50;100.00;101399.59;5036882;28;20067;-77
2022/04/13 06:23:24;;;;;;;43.33;26.88;;;;;;;10.53;100.00;101400.34;5023612;28;20135;-78
2022/04/13 06:25:50;;;;;;;37.65;25.38;;;;;;;10.58;100.00;101400.16;5023650;28;20111;-77
2022/04/13 06:28:15;;;;;;;40.90;25.17;;;;;;;10.61;100.00;101407.97;5024897;28;20068;-79
2022/04/13 06:30:41;;;;;;;38.22;24.65;;;;;;;10.64;100.00;101413.19;5039759;28;20409;-80
2022/04/13 06:33:09;;;;;;;39.85;25.02;;;;;;;10.68;100.00;101413.94;5040614;28;20075;-80
2022/04/13 06:35:35;;;;;;;36.47;25.02;;;;;;;10.71;100.00;101414.69;5007635;28;20688;-80
2022/04/13 06:38:00;;;;;;;38.83;25.02;;;;;;;10.73;100.00;101417.25;5057557;28;20029;-80
2022/04/13 06:40:26;;;;;;;38.15;24.98;;;;;;;10.76;100.00;101418.91;5038473;28;20028;-80
2022/04/13 06:42:51;;;;;;;34.30;23.52;;;;;;;10.76;100.00;101409.19;5057877;28;20048;-80
2022/04/13 06:45:17;;;;;;;36.50;23.23;;;;;;;10.81;100.00;101419.63;5057031;28;20033;-80
2022/04/13 06:47:42;;;;;;;34.92;23.20;;;;;;;10.86;100.00;101422.97;5039874;28;20040;-80
2022/04/13 06:50:09;;;;;;;32.60;22.75;;;;;;;10.93;100.00;101431.53;5036726;28;20483;-79
2022/04/13 06:52:35;;;;;;;37.05;22.30;;;;;;;10.98;100.00;101427.81;5039667;28;20093;-82
2022/04/13 06:55:02;;;;;;;38.33;22.45;;;;;;;11.03;100.00;101432.94;5055871;28;20024;-82
2022/04/13 06:57:27;;;;;;;33.97;22.83;;;;;;;11.06;100.00;101427.50;5038409;28;20127;-81
2022/04/13 06:59:53;;;;;;;34.85;22.05;;;;;;;11.12;100.00;101431.72;5057651;28;20052;-82
2022/04/13 07:02:18;;;;;;;35.90;22.23;;;;;;;11.17;100.00;101445.63;5057023;28;20098;-81
2022/04/13 07:04:44;;;;;;;33.08;21.42;;;;;;;11.23;100.00;101442.75;5057335;28;20037;-81
2022/04/13 07:07:09;;;;;;;32.60;22.15;;;;;;;11.30;100.00;101445.16;5038272;28;20032;-82
2022/04/13 07:09:35;;;;;;;39.72;21.67;;;;;;;11.36;100.00;101445.81;5038626;28;20083;-81
2022/04/13 07:12:00;;;;;;;35.25;21.50;;;;;;;11.47;100.00;101448.03;5057158;28;20520;-82
2022/04/13 07:14:26;;;;;;;30.67;21.17;;;;;;;11.57;100.00;101443.22;5058094;28;20040;-80
2022/04/13 07:16:52;;;;;;;34.40;20.83;;;;;;;11.71;100.00;101452.41;5026462;28;20645;-83
2022/04/13 07:19:17;;;;;;;29.92;20.23;;;;;;;11.87;100.00;101453.50;5038618;28;20259;-76
2022/04/13 07:21:43;;;;;;;28.15;20.00;;;;;;;12.07;100.00;101455.38;5054432;28;20593;-80
2022/04/13 07:24:10;;;;;;;33.70;19.85;;;;;;;12.24;100.00;101450.28;5055352;28;20393;-80
2022/04/13 07:26:36;;;;;;;31.90;18.98;;;;;;;12.36;100.00;101453.25;5035417;28;20028;-80
2022/04/13 07:29:02;;;;;;;29.42;18.23;;;;;;;12.49;100.00;101464.19;5055152;28;20472;-79
2022/04/13 07:31:28;;;;;;;27.17;17.45;;;;;;;12.62;100.00;101476.94;5035968;28;20034;-80
2022/04/13 07:33:54;;;;;;;25.55;17.15;;;;;;;12.74;100.00;101471.09;5036068;28;20037;-80
2022/04/13 07:36:19;;;;;;;29.67;16.88;;;;;;;12.92;100.00;101465.91;5058791;28;20040;-82
2022/04/13 07:38:45;;;;;;;27.45;15.80;;;;;;;13.11;100.00;101467.69;5043336;28;20055;-82
2022/04/13 07:41:10;;;;;;;24.63;15.98;;;;;;;13.28;100.00;101477.53;5060700;28;20617;-81
2022/04/13 07:43:36;;;;;;;25.77;15.25;;;;;;;13.44;100.00;101475.03;5041305;28;20067;-82
2022/04/13 07:46:02;;;;;;;23.77;16.15;;;;;;;13.57;100.00;101476.19;5024731;28;20440;-82
2022/04/13 07:48:29;;;;;;;23.40;15.77;;;;;;;13.65;100.00;101482.94;5045807;28;20032;-74
2022/04/13 07:50:55;;;;;;;26.35;15.38;;;;;;;13.72;100.00;101481.69;5042611;28;20454;-75
2022/04/13 07:53:20;;;;;;;23.10;15.90;;;;;;;13.82;100.00;101485.66;5030100;28;20034;-74
2022/04/13 07:55:46;;;;;;;27.38;16.58;;;;;;;13.92;100.00;101480.75;5041887;28;20641;-75
2022/04/13 07:58:11;;;;;;;28.05;16.05;;;;;;;14.05;100.00;101482.78;5032087;28;20033;-74
2022/04/13 08:00:37;;;;;;;23.88;16.08;;;;;;;14.18;99.32;101485.69;5039915;28;20119;-75
2022/04/13 08:03:04;;;;;;;23.77;16.50;;;;;;;14.25;99.08;101493.31;5039190;28;20047;-75
2022/04/13 08:05:29;;;;;;;24.20;15.27;;;;;;;14.33;98.89;101498.22;5055852;28;20028;-75
2022/04/13 08:07:55;;;;;;;23.58;15.75;;;;;;;14.48;98.87;101504.56;5056613;28;20467;-74
2022/04/13 08:10:20;;;;;;;26.65;15.82;;;;;;;14.50;97.61;101497.34;5058277;28;20331;-76
2022/04/13 08:12:46;;;;;;;23.88;15.30;;;;;;;14.47;97.02;101496.66;5039304;28;20055;-75
2022/04/13 08:15:12;;;;;;;25.75;15.55;;;;;;;14.33;95.87;101508.88;5057069;28;20280;-75
2022/04/13 08:17:41;;;;;;;25.30;14.98;;;;;;;14.26;95.72;101511.00;5057534;28;22043;-74
2022/04/13 08:20:09;;;;;;;26.25;15.25;;;;;;;14.17;95.55;101510.59;5058407;28;20043;-74
2022/04/13 08:22:35;;;;;;;28.23;16.10;;;;;;;14.09;95.43;101519.84;5038670;28;20050;-75
2022/04/13 08:25:01;;;;;;;23.60;15.80;;;;;;;14.04;95.49;101521.84;5023714;28;20040;-76
2022/04/13 08:27:26;;;;;;;25.42;15.15;;;;;;;14.11;96.13;101539.25;5058697;28;20066;-74
2022/04/13 08:29:53;;;;;;;21.08;15.43;;;;;;;14.26;96.10;101531.44;5057368;28;20032;-77
2022/04/13 08:32:19;;;;;;;25.55;15.70;;;;;;;14.41;95.88;101532.47;5041611;28;20054;-75
2022/04/13 08:34:46;;;;;;;20.05;13.77;;;;;;;14.57;95.22;101535.22;5056558;28;20036;-75
2022/04/13 08:37:14;;;;;;;24.23;13.82;;;;;;;14.69;94.82;101531.03;5056015;28;20039;-75
2022/04/13 08:39:40;;;;;;;27.45;13.18;;;;;;;14.74;93.31;101531.72;5053873;28;20065;-76
2022/04/13 08:42:11;;;;;;;21.38;12.85;;;;;;;14.90;93.15;101542.44;5038748;28;20081;-76
2022/04/13 08:44:48;;;;;;;21.08;12.70;;;;;;;15.09;92.63;101537.91;5057409;28;20090;-76
2022/04/13 08:47:23;;;;;;;16.58;10.38;;;;;;;15.23;90.36;101543.38;5043345;28;20250;-75
2022/04/13 08:49:51;;;;;;;21.50;11.73;;;;;;;15.24;89.54;101534.41;5027580;28;20051;-76
2022/04/13 08:52:31;;;;;;;19.65;11.00;;;;;;;15.22;89.52;101546.97;5056986;28;20056;-76
2022/04/13 08:55:05;;;;;;;16.27;10.23;;;;;;;15.27;89.03;101547.59;5038769;28;20058;-76
2022/04/13 08:57:39;;;;;;;20.55;11.10;;;;;;;15.29;88.46;101540.38;5056348;28;20041;-77
2022/04/13 09:00:15;;;;;;;15.88;10.98;;;;;;;15.35;88.45;101544.50;5038442;28;20441;-76
2022/04/13 09:03:19;;;;;;;19.05;11.30;;;;;;;15.43;87.44;101544.09;5038863;28;20317;-76
2022/04/13 09:05:47;;;;;;;18.17;11.02;;;;;;;15.55;88.01;101551.44;5028072;28;20301;-76
2022/04/13 09:08:20;;;;;;;20.23;11.73;;;;;;;15.72;88.22;101557.63;5038624;28;20032;-76
2022/04/13 09:10:55;;;;;;;20.08;12.10;;;;;;;15.94;86.76;101561.78;5026903;28;20064;-77
2022/04/13 09:13:22;;;;;;;16.60;10.63;;;;;;;16.05;86.63;101554.00;5039758;28;20028;-76
2022/04/13 09:15:48;;;;;;;19.85;11.25;;;;;;;16.10;85.72;101557.28;5059276;28;20092;-76
2022/04/13 09:18:14;;;;;;;18.52;11.32;;;;;;;16.17;85.91;101560.44;5065076;28;20146;-78
2022/04/13 09:20:40;;;;;;;18.58;10.70;;;;;;;16.19;85.23;101566.59;5061547;28;20115;-77
2022/04/13 09:23:06;;;;;;;19.55;11.25;;;;;;;16.26;85.55;101564.41;5021420;28;20031;-76
2022/04/13 09:25:34;;;;;;;18.05;10.77;;;;;;;16.38;86.57;101568.16;5040085;28;20045;-76
2022/04/13 09:28:01;;;;;;;17.33;10.95;;;;;;;16.67;86.99;101563.75;5021579;28;20821;-76
2022/04/13 09:30:28;;;;;;;16.95;10.50;;;;;;;16.78;84.90;101570.28;5015471;28;20475;-76
2022/04/13 09:32:54;;;;;;;15.82;10.52;;;;;;;16.75;84.54;101575.81;5037938;28;20343;-76
2022/04/13 09:35:20;;;;;;;18.98;10.10;;;;;;;16.72;84.72;101576.00;5005947;28;20032;-77
2022/04/13 09:37:46;;;;;;;16.45;11.00;;;;;;;16.63;83.89;101583.63;5057366;28;20309;-77
2022/04/13 09:40:27;;;;;;;22.77;11.48;;;;;;;16.52;83.03;101575.38;5043709;28;20191;-77
2022/04/13 09:43:03;;;;;;;17.15;11.18;;;;;;;16.48;83.04;101580.03;5056944;28;20143;-75
2022/04/13 09:45:33;;;;;;;20.73;11.00;;;;;;;16.40;83.51;101580.50;5040196;28;20072;-76
2022/04/13 09:47:58;;;;;;;20.38;9.63;;;;;;;16.39;83.91;101596.59;5038010;28;20074;-75
2022/04/13 09:50:25;;;;;;;18.02;9.63;;;;;;;16.36;82.89;101589.66;5038681;28;20036;-76
2022/04/13 09:52:57;;;;;;;17.15;9.93;;;;;;;16.43;83.44;101588.34;5037592;28;20110;-76
2022/04/13 09:55:23;;;;;;;17.45;9.38;;;;;;;16.41;82.57;101586.69;5039090;28;20127;-75
2022/04/13 09:57:48;;;;;;;20.85;9.60;;;;;;;16.36;82.49;101581.63;5016778;28;20028;-75
2022/04/13 10:00:14;;;;;;;19.00;9.23;;;;;;;16.40;82.67;101583.16;5036378;28;20048;-76
2022/04/13 10:02:41;;;;;;;17.00;8.68;;;;;;;16.40;81.83;101577.81;5034265;28;20033;-75
2022/04/13 10:05:28;;;;;;;16.45;8.45;;;;;;;16.39;81.14;101575.22;5033838;28;20143;-76
2022/04/13 10:08:01;;;;;;;20.23;9.95;;;;;;;16.35;80.92;101574.53;5039382;28;20048;-75
2022/04/13 10:10:28;;;;;;;20.17;11.13;;;;;;;16.37;81.70;101580.69;5036463;28;20476;-75
2022/04/13 10:12:53;;;;;;;14.18;8.40;;;;;;;16.36;80.89;101576.28;5036315;28;20160;-75
2022/04/13 10:15:19;;;;;;;15.73;8.55;;;;;;;16.32;81.52;101574.75;5031929;28;20028;-75
2022/04/13 10:17:45;;;;;;;17.92;8.07;;;;;;;16.31;81.44;101580.16;5020058;28;20032;-75
2022/04/13 10:20:10;;;;;;;19.48;8.90;;;;;;;16.25;81.54;101581.38;5002319;28;20083;-76
2022/04/13 10:23:01;;;;;;;24.17;9.15;;;;;;;16.18;80.11;101591.56;5033530;28;20541;-74
2022/04/13 10:25:27;;;;;;;16.33;9.25;;;;;;;16.16;81.06;101596.13;5035622;28;20025;-74
2022/04/13 10:27:57;;;;;;;15.93;8.38;;;;;;;16.15;80.95;101607.78;5031447;28;20116;-75
2022/04/13 10:30:38;;;;;;;18.90;8.90;;;;;;;16.04;80.81;101607.50;5034197;28;20098;-74
2022/04/13 10:33:05;;;;;;;20.27;9.38;;;;;;;16.06;81.33;101618.97;5030905;28;20037;-73
2022/04/13 10:35:33;;;;;;;18.17;7.80;;;;;;;16.04;81.13;101615.50;5031735;28;20038;-74
2022/04/13 10:37:58;;;;;;;11.88;8.02;;;;;;;16.10;81.25;101617.84;5035109;28;20035;-74
2022/04/13 10:40:25;;;;;;;16.33;7.88;;;;;;;16.16;81.48;101620.16;5034083;28;20036;-74
2022/04/13 10:42:52;;;;;;;11.93;6.82;;;;;;;16.21;81.28;101627.91;5016834;28;20218;-74
2022/04/13 10:45:18;;;;;;;15.30;6.28;;;;;;;16.24;80.35;101625.09;5036231;28;20109;-74
2022/04/13 10:47:47;;;;;;;14.52;6.57;;;;;;;16.21;79.68;101625.25;5032466;28;20032;-74
2022/04/13 10:50:13;;;;;;;15.63;6.90;;;;;;;16.15;80.08;101627.34;5034446;28;20033;-74
2022/04/13 10:52:59;;;;;;;15.13;6.60;;;;;;;16.16;79.62;101641.53;5033731;28;20503;-73
2022/04/13 10:55:27;;;;;;;16.27;6.85;;;;;;;16.02;79.51;101648.53;5020326;28;20028;-73
2022/04/13 10:57:55;;;;;;;17.25;6.75;;;;;;;15.94;79.91;101644.53;5035128;28;21467;-75
2022/04/13 11:00:22;;;;;;;17.00;7.60;;;;;;;15.89;80.43;101647.44;5045363;28;20048;-74
2022/04/13 11:02:53;;;;;;;13.98;7.38;;;;;;;15.86;80.97;101659.16;5009028;28;20036;-75
2022/04/13 11:05:19;;;;;;;15.90;7.38;;;;;;;15.88;81.43;101659.94;5034659;28;20040;-74
2022/04/13 11:07:45;;;;;;;19.63;7.20;;;;;;;15.85;81.21;101662.78;5038232;28;20032;-75